LPPS/PXO METAR and TAF weather

Enter ICAO airport designator
Station Type Date Time Source
LPPS METAR 2021/05/16 00:00 UTC NOAA

LPPS 160000Z 02014KT 9999 BKN015 19/14 Q1022


Station Type Date Time Source
LPPS Decoded METAR 2021/05/16 00:00 UTC NOAA

Porto Santo, Portugal (LPPS) 33-04N 016-21W 82M
May 15, 2021 - 08:00 PM EDT / 2021.05.16 0000 UTC
Wind: from the NNE (020 degrees) at 16 MPH (14 KT):0
Visibility: greater than 7 mile(s):0
Sky conditions: mostly cloudy
Temperature: 66 F (19 C)
Dew Point: 57 F (14 C)
Relative Humidity: 72%
Pressure (altimeter): 30.18 in. Hg (1022 hPa)
ob: LPPS 160000Z 02014KT 9999 BKN015 19/14 Q1022
cycle: 0

Station Type Date Time Source
LPPS TAF 2021/05/15 18:18 UTC NOAA

TAF LPPS 151700Z 1518/1624 01017KT 9999 SCT015 SCT030 PROB30
TEMPO 1600/1609 BKN012
BECMG 1601/1604 01012KT

Example: see airport list